Time;durP1;ratioP1;P1;durP2;ratioP2;P2;SDS_P1;SDS_P2;PMS_P1;PMS_P2;Temp;Humidity;BMP_temperature;BMP_pressure;BME280_temperature;BME280_humidity;BME280_pressure;Samples;Min_cycle;Max_cycle;Signal;HPM_P1;HPM_P2
2023/03/10 00:01:34;;;;;;;;;2.75;2.25;;;;;;;;5067241;28;64905;-86
2023/03/10 00:04:00;;;;;;;;;3.25;2.00;;;;;;;;5082029;28;61990;-84
2023/03/10 00:06:26;;;;;;;;;4.50;2.75;;;;;;;;5085638;28;61934;-84
2023/03/10 00:08:52;;;;;;;;;3.75;3.75;;;;;;;;5066964;28;61705;-86
2023/03/10 00:11:18;;;;;;;;;4.00;3.00;;;;;;;;5066242;28;63670;-85
2023/03/10 00:13:43;;;;;;;;;8.00;5.50;;;;;;;;5065986;28;61891;-84
2023/03/10 00:16:18;;;;;;;;;5.25;3.00;;;;;;;;5065900;28;61715;-84
2023/03/10 00:18:45;;;;;;;;;2.25;1.00;;;;;;;;5065177;28;61945;-85
2023/03/10 00:21:14;;;;;;;;;6.50;2.75;;;;;;;;5065665;28;63810;-84
2023/03/10 00:23:39;;;;;;;;;9.75;3.25;;;;;;;;5067813;28;61888;-86
2023/03/10 00:26:05;;;;;;;;;8.50;4.50;;;;;;;;5067888;28;61778;-86
2023/03/10 00:28:30;;;;;;;;;5.50;1.25;;;;;;;;5066616;28;61767;-85
2023/03/10 00:30:56;;;;;;;;;5.75;1.75;;;;;;;;5065829;28;63767;-86
2023/03/10 00:33:21;;;;;;;;;2.50;1.50;;;;;;;;5067258;27;61297;-85
2023/03/10 00:35:47;;;;;;;;;4.75;1.25;;;;;;;;5066412;28;61589;-87
2023/03/10 00:38:12;;;;;;;;;4.00;3.00;;;;;;;;5067180;28;61713;-88
2023/03/10 00:40:37;;;;;;;;;4.75;1.75;;;;;;;;5066043;28;65015;-86
2023/03/10 00:43:02;;;;;;;;;6.75;2.00;;;;;;;;5083904;27;61667;-84
2023/03/10 00:45:28;;;;;;;;;15.75;4.50;;;;;;;;5066053;28;61976;-84
2023/03/10 00:47:53;;;;;;;;;3.75;1.75;;;;;;;;5084484;28;62103;-84
2023/03/10 00:50:18;;;;;;;;;9.00;4.00;;;;;;;;5084051;28;62017;-86
2023/03/10 00:52:44;;;;;;;;;4.00;2.00;;;;;;;;5066250;28;62587;-85
2023/03/10 00:55:11;;;;;;;;;9.25;2.75;;;;;;;;5066268;28;62231;-84
2023/03/10 00:57:37;;;;;;;;;11.00;2.75;;;;;;;;5065867;28;62089;-85
2023/03/10 01:00:04;;;;;;;;;6.75;1.00;;;;;;;;5084817;28;62795;-86
2023/03/10 01:02:30;;;;;;;;;1.75;1.50;;;;;;;;5086158;28;61792;-86
2023/03/10 01:04:55;;;;;;;;;2.25;2.00;;;;;;;;5067493;28;61826;-85
2023/03/10 01:07:20;;;;;;;;;8.50;1.25;;;;;;;;5068415;28;61992;-86
2023/03/10 01:09:45;;;;;;;;;1.25;0.75;;;;;;;;5067197;28;63646;-85
2023/03/10 01:12:11;;;;;;;;;2.75;2.00;;;;;;;;5068325;28;61718;-87
2023/03/10 01:14:36;;;;;;;;;2.75;1.00;;;;;;;;5086556;28;61827;-85
2023/03/10 01:17:03;;;;;;;;;0.75;0.75;;;;;;;;5069126;28;62199;-86
2023/03/10 01:19:28;;;;;;;;;1.50;1.00;;;;;;;;5066478;28;64072;-86
2023/03/10 01:21:53;;;;;;;;;2.25;0.75;;;;;;;;5085471;28;62007;-86
2023/03/10 01:24:18;;;;;;;;;1.00;1.00;;;;;;;;5067872;28;61956;-86
2023/03/10 01:26:44;;;;;;;;;5.25;1.00;;;;;;;;5066751;28;61730;-85
2023/03/10 01:29:09;;;;;;;;;0.75;0.25;;;;;;;;5066611;28;65046;-86
2023/03/10 01:31:34;;;;;;;;;0.00;0.00;;;;;;;;5067122;28;61798;-86
2023/03/10 01:33:59;;;;;;;;;1.00;0.00;;;;;;;;5068347;28;62426;-86
2023/03/10 01:36:25;;;;;;;;;3.50;1.00;;;;;;;;5066865;28;61326;-85
2023/03/10 01:38:51;;;;;;;;;1.00;1.00;;;;;;;;5065395;28;63806;-85
2023/03/10 01:41:17;;;;;;;;;1.00;1.00;;;;;;;;5066347;28;61825;-85
2023/03/10 01:43:48;;;;;;;;;1.00;0.00;;;;;;;;5066492;28;61824;-85
2023/03/10 01:46:19;;;;;;;;;2.00;1.00;;;;;;;;5067351;28;61688;-85
2023/03/10 01:48:44;;;;;;;;;3.00;0.25;;;;;;;;5066451;28;64698;-86
2023/03/10 01:51:10;;;;;;;;;0.50;0.00;;;;;;;;5084980;28;61843;-87
2023/03/10 01:53:35;;;;;;;;;3.00;0.00;;;;;;;;5066928;28;61853;-84
2023/03/10 01:56:03;;;;;;;;;1.50;1.50;;;;;;;;5065757;28;62011;-85
2023/03/10 01:58:31;;;;;;;;;1.75;1.75;;;;;;;;5083712;28;62088;-86
2023/03/10 02:00:56;;;;;;;;;3.25;1.00;;;;;;;;5066568;28;62173;-86
2023/03/10 02:03:36;;;;;;;;;1.50;1.00;;;;;;;;5065225;28;61863;-84
2023/03/10 02:06:03;;;;;;;;;1.75;0.00;;;;;;;;5065390;28;62445;-84
2023/03/10 02:08:30;;;;;;;;;2.00;1.00;;;;;;;;5067078;28;65103;-85
2023/03/10 02:10:56;;;;;;;;;4.50;0.00;;;;;;;;5068344;28;61930;-84
2023/03/10 02:13:21;;;;;;;;;1.25;1.25;;;;;;;;5068185;28;61957;-85
2023/03/10 02:15:48;;;;;;;;;4.00;1.25;;;;;;;;5068718;28;61835;-85
2023/03/10 02:18:14;;;;;;;;;2.00;1.00;;;;;;;;5085477;28;61829;-84
2023/03/10 02:21:02;;;;;;;;;3.00;2.75;;;;;;;;5086355;28;61661;-84
2023/03/10 02:23:38;;;;;;;;;8.50;1.25;;;;;;;;5060642;28;61800;-85
2023/03/10 02:26:08;;;;;;;;;2.50;1.50;;;;;;;;5068095;28;62069;-84
2023/03/10 02:28:33;;;;;;;;;3.00;1.00;;;;;;;;5066965;28;63750;-84
2023/03/10 02:30:59;;;;;;;;;2.00;1.25;;;;;;;;5087034;28;61897;-84
2023/03/10 02:33:27;;;;;;;;;3.50;0.75;;;;;;;;5087646;28;61920;-86
2023/03/10 02:35:52;;;;;;;;;2.00;0.75;;;;;;;;5068721;28;61645;-84
2023/03/10 02:38:18;;;;;;;;;4.50;1.25;;;;;;;;5068297;28;63655;-86
2023/03/10 02:40:48;;;;;;;;;2.25;1.00;;;;;;;;5069404;28;61870;-85
2023/03/10 02:43:13;;;;;;;;;2.50;1.00;;;;;;;;5069509;28;61821;-86
2023/03/10 02:45:39;;;;;;;;;4.50;1.75;;;;;;;;5088051;28;61895;-85
2023/03/10 02:48:06;;;;;;;;;2.25;1.50;;;;;;;;5068076;28;63882;-85
2023/03/10 02:50:35;;;;;;;;;0.75;0.75;;;;;;;;5086394;28;61892;-86
2023/03/10 02:53:05;;;;;;;;;1.00;0.00;;;;;;;;5068241;28;61715;-86
2023/03/10 02:55:30;;;;;;;;;4.00;1.00;;;;;;;;5068501;28;61889;-84
2023/03/10 02:57:55;;;;;;;;;4.75;1.75;;;;;;;;5067271;28;63884;-84
2023/03/10 03:00:21;;;;;;;;;1.00;1.00;;;;;;;;5067580;28;62063;-84
2023/03/10 03:02:46;;;;;;;;;3.75;2.00;;;;;;;;5087019;28;61760;-85
2023/03/10 03:05:11;;;;;;;;;1.00;1.00;;;;;;;;5068265;28;62132;-85
2023/03/10 03:07:36;;;;;;;;;0.50;0.50;;;;;;;;5067459;28;64736;-84
2023/03/10 03:10:02;;;;;;;;;0.00;0.00;;;;;;;;5067798;28;61751;-85
2023/03/10 03:12:27;;;;;;;;;1.75;0.50;;;;;;;;5068046;28;61877;-86
2023/03/10 03:14:53;;;;;;;;;2.50;0.25;;;;;;;;5068796;28;62191;-85
2023/03/10 03:17:18;;;;;;;;;2.00;0.00;;;;;;;;5067402;28;63685;-84
2023/03/10 03:19:43;;;;;;;;;1.00;1.00;;;;;;;;5068326;28;61633;-85
2023/03/10 03:22:08;;;;;;;;;0.00;0.00;;;;;;;;5068195;28;62270;-84
2023/03/10 03:24:34;;;;;;;;;0.00;0.00;;;;;;;;5068398;28;61906;-84
2023/03/10 03:26:59;;;;;;;;;0.00;0.00;;;;;;;;5085945;27;61784;-86
2023/03/10 03:29:24;;;;;;;;;0.25;0.25;;;;;;;;5067065;28;61729;-84
2023/03/10 03:31:50;;;;;;;;;2.75;0.00;;;;;;;;5067676;28;61828;-85
2023/03/10 03:34:16;;;;;;;;;1.25;1.00;;;;;;;;5068186;28;61885;-84
2023/03/10 03:36:41;;;;;;;;;2.75;0.25;;;;;;;;5067562;28;65026;-84
2023/03/10 03:39:07;;;;;;;;;0.00;0.00;;;;;;;;5069326;28;61880;-85
2023/03/10 03:41:33;;;;;;;;;0.25;0.00;;;;;;;;5087173;28;61837;-86
2023/03/10 03:43:58;;;;;;;;;1.00;0.00;;;;;;;;5086248;27;61787;-84
2023/03/10 03:46:23;;;;;;;;;0.75;0.25;;;;;;;;5085955;28;62309;-85
2023/03/10 03:48:49;;;;;;;;;1.50;1.00;;;;;;;;5066909;28;61818;-84
2023/03/10 03:51:14;;;;;;;;;1.75;0.25;;;;;;;;5086731;27;61785;-85
2023/03/10 03:53:39;;;;;;;;;2.50;1.00;;;;;;;;5068069;28;62105;-85
2023/03/10 03:56:05;;;;;;;;;2.50;1.00;;;;;;;;5066981;28;63514;-84
2023/03/10 03:58:30;;;;;;;;;3.00;1.00;;;;;;;;5085257;27;61989;-84
2023/03/10 04:00:55;;;;;;;;;5.25;0.50;;;;;;;;5066591;28;61807;-84
2023/03/10 04:03:20;;;;;;;;;1.00;0.00;;;;;;;;5066877;28;61864;-85
2023/03/10 04:05:46;;;;;;;;;3.00;1.25;;;;;;;;5065713;28;63706;-85
2023/03/10 04:08:11;;;;;;;;;0.25;0.25;;;;;;;;5066190;28;61983;-84
2023/03/10 04:10:37;;;;;;;;;3.00;3.00;;;;;;;;5066210;28;62160;-84
2023/03/10 04:13:02;;;;;;;;;1.00;1.00;;;;;;;;5085379;28;61770;-84
2023/03/10 04:15:27;;;;;;;;;1.00;1.00;;;;;;;;5066607;28;64030;-85
2023/03/10 04:17:52;;;;;;;;;0.50;0.00;;;;;;;;5067422;28;61717;-85
2023/03/10 04:20:18;;;;;;;;;1.25;1.00;;;;;;;;5084833;27;61710;-85
2023/03/10 04:22:43;;;;;;;;;6.25;0.00;;;;;;;;5067829;28;61770;-86
2023/03/10 04:25:09;;;;;;;;;2.00;1.00;;;;;;;;5067778;28;63965;-84
2023/03/10 04:27:35;;;;;;;;;2.50;1.00;;;;;;;;5085220;28;61880;-84
2023/03/10 04:30:00;;;;;;;;;3.00;1.00;;;;;;;;5066238;28;61845;-84
2023/03/10 04:32:26;;;;;;;;;2.00;0.75;;;;;;;;5066409;28;61971;-84
2023/03/10 04:34:51;;;;;;;;;1.00;1.00;;;;;;;;5066699;28;63659;-86
2023/03/10 04:37:17;;;;;;;;;1.50;1.00;;;;;;;;5067187;28;61814;-84
2023/03/10 04:39:42;;;;;;;;;0.75;0.50;;;;;;;;5084664;27;61956;-84
2023/03/10 04:42:07;;;;;;;;;3.50;1.00;;;;;;;;5067126;27;61791;-85
2023/03/10 04:44:33;;;;;;;;;0.25;0.00;;;;;;;;5065858;28;63949;-85
2023/03/10 04:46:58;;;;;;;;;0.00;0.00;;;;;;;;5085830;28;61824;-84
2023/03/10 04:49:23;;;;;;;;;1.25;0.75;;;;;;;;5067589;28;61948;-84
2023/03/10 04:51:49;;;;;;;;;1.00;1.00;;;;;;;;5068234;28;61771;-84
2023/03/10 04:54:14;;;;;;;;;1.75;1.00;;;;;;;;5067005;28;63957;-84
2023/03/10 04:56:39;;;;;;;;;0.00;0.00;;;;;;;;5085465;28;61767;-84
2023/03/10 04:59:04;;;;;;;;;2.50;1.50;;;;;;;;5068111;28;61786;-85
2023/03/10 05:01:31;;;;;;;;;1.75;1.00;;;;;;;;5068751;28;62198;-84
2023/03/10 05:04:00;;;;;;;;;0.50;0.00;;;;;;;;5085369;28;61695;-85
2023/03/10 05:06:26;;;;;;;;;0.00;0.00;;;;;;;;5086156;27;61765;-84
2023/03/10 05:08:51;;;;;;;;;1.00;0.00;;;;;;;;5066767;28;62273;-83
2023/03/10 05:11:17;;;;;;;;;1.50;0.00;;;;;;;;5067159;28;61884;-86
2023/03/10 05:13:42;;;;;;;;;1.25;0.00;;;;;;;;5067920;28;63555;-85
2023/03/10 05:16:14;;;;;;;;;0.00;0.00;;;;;;;;5066458;28;61774;-84
2023/03/10 05:18:40;;;;;;;;;0.00;0.00;;;;;;;;5066929;28;61919;-84
2023/03/10 05:21:05;;;;;;;;;0.00;0.00;;;;;;;;5084867;28;62171;-85
2023/03/10 05:23:31;;;;;;;;;1.00;0.00;;;;;;;;5084538;27;61758;-85
2023/03/10 05:25:56;;;;;;;;;1.00;0.50;;;;;;;;5067496;28;61812;-85
2023/03/10 05:28:22;;;;;;;;;5.00;0.00;;;;;;;;5067309;28;62014;-87
2023/03/10 05:30:48;;;;;;;;;1.00;0.00;;;;;;;;5067048;28;61778;-84
2023/03/10 05:33:13;;;;;;;;;2.75;0.00;;;;;;;;5066046;28;63748;-85
2023/03/10 05:35:38;;;;;;;;;1.00;0.00;;;;;;;;5084804;28;61943;-85
2023/03/10 05:38:03;;;;;;;;;0.00;0.00;;;;;;;;5067591;28;61743;-86
2023/03/10 05:40:29;;;;;;;;;0.00;0.00;;;;;;;;5066552;28;62036;-87
2023/03/10 05:42:54;;;;;;;;;0.00;0.00;;;;;;;;5067866;28;63693;-85
2023/03/10 05:45:19;;;;;;;;;0.25;0.00;;;;;;;;5069852;27;61919;-86
2023/03/10 05:47:45;;;;;;;;;0.00;0.00;;;;;;;;5087936;28;62226;-84
2023/03/10 05:50:11;;;;;;;;;0.00;0.00;;;;;;;;5069524;28;61878;-86
2023/03/10 05:52:37;;;;;;;;;1.00;0.00;;;;;;;;5068858;28;63813;-84
2023/03/10 05:55:02;;;;;;;;;0.00;0.00;;;;;;;;5068767;27;61951;-84
2023/03/10 05:57:28;;;;;;;;;0.00;0.00;;;;;;;;5070084;28;61777;-86
2023/03/10 05:59:53;;;;;;;;;1.00;0.00;;;;;;;;5086666;27;62332;-84
2023/03/10 06:02:18;;;;;;;;;0.00;0.00;;;;;;;;5069054;28;63920;-89
2023/03/10 06:04:43;;;;;;;;;0.50;0.00;;;;;;;;5088131;27;61737;-86
2023/03/10 06:07:13;;;;;;;;;0.00;0.00;;;;;;;;5069205;28;61751;-82
2023/03/10 06:09:39;;;;;;;;;0.00;0.00;;;;;;;;5086344;28;61844;-81
2023/03/10 06:12:05;;;;;;;;;0.00;0.00;;;;;;;;5067119;27;63733;-80
2023/03/10 06:14:30;;;;;;;;;0.75;0.00;;;;;;;;5067557;28;61895;-81
2023/03/10 06:16:56;;;;;;;;;0.75;0.00;;;;;;;;5085404;27;62093;-79
2023/03/10 06:19:22;;;;;;;;;2.25;0.00;;;;;;;;5067292;28;62001;-79
2023/03/10 06:21:47;;;;;;;;;0.75;0.00;;;;;;;;5085836;27;61789;-79
2023/03/10 06:24:13;;;;;;;;;0.00;0.00;;;;;;;;5067292;28;61728;-79
2023/03/10 06:26:38;;;;;;;;;0.00;0.00;;;;;;;;5085607;28;61784;-79
2023/03/10 06:29:04;;;;;;;;;0.00;0.00;;;;;;;;5084970;27;62073;-80
2023/03/10 06:31:29;;;;;;;;;0.00;0.00;;;;;;;;5066800;28;63809;-80
2023/03/10 06:33:55;;;;;;;;;0.00;0.00;;;;;;;;5066035;28;61823;-80
2023/03/10 06:36:21;;;;;;;;;1.00;0.00;;;;;;;;5085490;28;61760;-81
2023/03/10 06:38:46;;;;;;;;;0.00;0.00;;;;;;;;5066967;28;62203;-80
2023/03/10 06:41:12;;;;;;;;;0.00;0.00;;;;;;;;5066268;28;63899;-80
2023/03/10 06:43:37;;;;;;;;;0.00;0.00;;;;;;;;5059880;28;61793;-79
2023/03/10 06:46:03;;;;;;;;;0.00;0.00;;;;;;;;5066726;28;62221;-80
2023/03/10 06:48:29;;;;;;;;;0.00;0.00;;;;;;;;5066820;28;62176;-79
2023/03/10 06:50:54;;;;;;;;;0.50;0.00;;;;;;;;5080730;27;62133;-79
2023/03/10 06:53:20;;;;;;;;;0.50;0.00;;;;;;;;5053926;28;61974;-79
2023/03/10 06:56:00;;;;;;;;;0.00;0.00;;;;;;;;5055886;28;61956;-79
2023/03/10 06:58:26;;;;;;;;;0.00;0.00;;;;;;;;5075196;28;61781;-80
2023/03/10 07:00:52;;;;;;;;;0.00;0.00;;;;;;;;5076644;27;61982;-79
2023/03/10 07:03:17;;;;;;;;;0.00;0.00;;;;;;;;5057034;28;61997;-80
2023/03/10 07:05:42;;;;;;;;;0.00;0.00;;;;;;;;5074581;27;62008;-80
2023/03/10 07:08:08;;;;;;;;;0.00;0.00;;;;;;;;5055876;27;62079;-80
2023/03/10 07:10:33;;;;;;;;;1.00;0.00;;;;;;;;5072792;28;61789;-80
2023/03/10 07:12:58;;;;;;;;;0.00;0.00;;;;;;;;5063020;28;61893;-80
2023/03/10 07:16:01;;;;;;;;;1.00;0.00;;;;;;;;5066416;27;61777;-80
2023/03/10 07:18:28;;;;;;;;;1.00;0.00;;;;;;;;5066783;28;61773;-80
2023/03/10 07:20:54;;;;;;;;;0.00;0.00;;;;;;;;5065516;27;63864;-80
2023/03/10 07:23:19;;;;;;;;;0.00;0.00;;;;;;;;5066128;28;61954;-80
2023/03/10 07:25:44;;;;;;;;;0.00;0.00;;;;;;;;5066492;28;62129;-81
2023/03/10 07:28:10;;;;;;;;;0.00;0.00;;;;;;;;5084433;27;61837;-81
2023/03/10 07:30:36;;;;;;;;;0.75;0.00;;;;;;;;5065016;28;64423;-80
2023/03/10 07:33:02;;;;;;;;;0.00;0.00;;;;;;;;5066275;28;61979;-80
2023/03/10 07:35:27;;;;;;;;;0.25;0.00;;;;;;;;5065762;28;62050;-80
2023/03/10 07:37:52;;;;;;;;;0.00;0.00;;;;;;;;5066708;28;61791;-80
2023/03/10 07:40:21;;;;;;;;;0.00;0.00;;;;;;;;5083208;27;62771;-82
2023/03/10 07:42:46;;;;;;;;;0.75;0.00;;;;;;;;5084569;28;61948;-82
2023/03/10 07:45:12;;;;;;;;;0.00;0.00;;;;;;;;5065956;28;61964;-83
2023/03/10 07:47:37;;;;;;;;;0.00;0.00;;;;;;;;5092089;27;62016;-82
2023/03/10 07:50:02;;;;;;;;;0.00;0.00;;;;;;;;5072458;27;62208;-82
2023/03/10 07:52:28;;;;;;;;;0.00;0.00;;;;;;;;5086866;27;61849;-83
2023/03/10 07:54:54;;;;;;;;;0.00;0.00;;;;;;;;5096190;27;61892;-82
2023/03/10 07:57:19;;;;;;;;;0.00;0.00;;;;;;;;5065831;27;61862;-82
2023/03/10 07:59:44;;;;;;;;;0.00;0.00;;;;;;;;5065294;28;64004;-83
2023/03/10 08:02:13;;;;;;;;;0.00;0.00;;;;;;;;5066847;27;61965;-81
2023/03/10 08:04:38;;;;;;;;;0.00;0.00;;;;;;;;5103026;27;62096;-82
2023/03/10 08:07:04;;;;;;;;;0.00;0.00;;;;;;;;5087167;27;61757;-82
2023/03/10 08:09:29;;;;;;;;;0.00;0.00;;;;;;;;5085120;27;64904;-83
2023/03/10 08:11:56;;;;;;;;;0.00;0.00;;;;;;;;5104306;27;61878;-82
2023/03/10 08:14:22;;;;;;;;;0.00;0.00;;;;;;;;5086076;27;62020;-82
2023/03/10 08:16:48;;;;;;;;;0.00;0.00;;;;;;;;5086140;27;62008;-82
2023/03/10 08:19:13;;;;;;;;;0.00;0.00;;;;;;;;5085037;27;65033;-82
2023/03/10 08:21:39;;;;;;;;;1.00;0.00;;;;;;;;5086177;27;62208;-82
2023/03/10 08:24:04;;;;;;;;;0.00;0.00;;;;;;;;5085724;27;62047;-82
2023/03/10 08:26:30;;;;;;;;;2.25;0.00;;;;;;;;5085813;27;62473;-83
2023/03/10 08:28:55;;;;;;;;;2.00;0.00;;;;;;;;5103519;27;62045;-82
2023/03/10 08:31:20;;;;;;;;;0.00;0.00;;;;;;;;5085220;27;61980;-81
2023/03/10 08:33:46;;;;;;;;;0.00;0.00;;;;;;;;5085621;27;62180;-82
2023/03/10 08:36:14;;;;;;;;;0.00;0.00;;;;;;;;5077758;28;62058;-82
2023/03/10 08:38:39;;;;;;;;;0.00;0.00;;;;;;;;5058746;28;63909;-82
2023/03/10 08:41:09;;;;;;;;;0.50;0.00;;;;;;;;5077789;28;61240;-82
2023/03/10 08:43:34;;;;;;;;;0.00;0.00;;;;;;;;5055931;28;61771;-82
2023/03/10 08:45:59;;;;;;;;;0.00;0.00;;;;;;;;5073591;28;61846;-82
2023/03/10 08:48:24;;;;;;;;;1.00;0.00;;;;;;;;5076831;27;62978;-82
2023/03/10 08:50:50;;;;;;;;;0.00;0.00;;;;;;;;5082084;27;61925;-81
2023/03/10 08:53:15;;;;;;;;;0.00;0.00;;;;;;;;5063077;28;62299;-87
2023/03/10 08:55:41;;;;;;;;;0.00;0.00;;;;;;;;5082647;27;61837;-82
2023/03/10 08:58:07;;;;;;;;;0.00;0.00;;;;;;;;5083764;27;62314;-83
2023/03/10 09:00:32;;;;;;;;;0.00;0.00;;;;;;;;5082585;28;62304;-83
2023/03/10 09:02:57;;;;;;;;;2.00;0.00;;;;;;;;5082596;27;62170;-81
2023/03/10 09:05:22;;;;;;;;;0.00;0.00;;;;;;;;5081639;27;61935;-78
2023/03/10 09:07:48;;;;;;;;;0.50;0.50;;;;;;;;5064279;28;63638;-81
2023/03/10 09:10:13;;;;;;;;;1.00;0.00;;;;;;;;5064513;28;61985;-81
2023/03/10 09:12:38;;;;;;;;;0.25;0.00;;;;;;;;5069311;28;62255;-81
2023/03/10 09:15:13;;;;;;;;;0.00;0.00;;;;;;;;5083349;27;61872;-81
2023/03/10 09:17:38;;;;;;;;;2.00;0.00;;;;;;;;5080312;28;63680;-81
2023/03/10 09:20:05;;;;;;;;;6.00;0.25;;;;;;;;5076462;27;62229;-82
2023/03/10 09:22:31;;;;;;;;;0.00;0.00;;;;;;;;5085009;27;61924;-81
2023/03/10 09:24:56;;;;;;;;;0.00;0.00;;;;;;;;5084421;28;62001;-82
2023/03/10 09:27:21;;;;;;;;;0.00;0.00;;;;;;;;5069076;28;63711;-82
2023/03/10 09:29:47;;;;;;;;;0.00;0.00;;;;;;;;5078008;28;62299;-83
2023/03/10 09:32:12;;;;;;;;;0.75;0.75;;;;;;;;5077705;28;61844;-83
2023/03/10 09:34:37;;;;;;;;;0.50;0.00;;;;;;;;5076158;27;62495;-82
2023/03/10 09:37:03;;;;;;;;;0.00;0.00;;;;;;;;5081321;28;63998;-83
2023/03/10 09:39:29;;;;;;;;;0.75;0.00;;;;;;;;5078260;27;62614;-82
2023/03/10 09:42:06;;;;;;;;;0.50;0.50;;;;;;;;5083601;28;61875;-83
2023/03/10 09:44:33;;;;;;;;;0.00;0.00;;;;;;;;5084177;27;61744;-82
2023/03/10 09:46:59;;;;;;;;;0.00;0.00;;;;;;;;5083422;28;61937;-82
2023/03/10 09:49:29;;;;;;;;;0.00;0.00;;;;;;;;5082679;28;62053;-82
2023/03/10 09:51:54;;;;;;;;;0.00;0.00;;;;;;;;5081267;28;62158;-79
2023/03/10 09:54:22;;;;;;;;;0.00;0.00;;;;;;;;5082284;27;61825;-80
2023/03/10 09:56:48;;;;;;;;;2.00;0.00;;;;;;;;5080268;28;63972;-81
2023/03/10 09:59:13;;;;;;;;;0.00;0.00;;;;;;;;5080520;28;61932;-80
2023/03/10 10:01:40;;;;;;;;;1.25;0.00;;;;;;;;5080788;27;61772;-81
2023/03/10 10:04:08;;;;;;;;;1.00;1.00;;;;;;;;5080691;27;61700;-81
2023/03/10 10:06:35;;;;;;;;;0.50;0.00;;;;;;;;5081529;27;62851;-82
2023/03/10 10:09:06;;;;;;;;;2.00;0.25;;;;;;;;5081789;27;61759;-79
2023/03/10 10:11:33;;;;;;;;;2.00;0.00;;;;;;;;5080408;28;61882;-79
2023/03/10 10:14:12;;;;;;;;;2.25;0.00;;;;;;;;5077232;28;61956;-80
2023/03/10 10:16:57;;;;;;;;;0.50;0.00;;;;;;;;5080596;27;64839;-79
2023/03/10 10:19:24;;;;;;;;;0.25;0.25;;;;;;;;5063334;28;61835;-79
2023/03/10 10:21:53;;;;;;;;;0.00;0.00;;;;;;;;5059862;28;61782;-78
2023/03/10 10:24:19;;;;;;;;;2.75;1.00;;;;;;;;5067146;28;61949;-80
2023/03/10 10:26:44;;;;;;;;;0.00;0.00;;;;;;;;5073719;28;64049;-82
2023/03/10 10:29:12;;;;;;;;;3.00;0.00;;;;;;;;5083004;27;61832;-82
2023/03/10 10:31:37;;;;;;;;;0.50;0.00;;;;;;;;5083374;27;61991;-77
2023/03/10 10:34:04;;;;;;;;;0.75;0.00;;;;;;;;5085322;27;61777;-77
2023/03/10 10:36:36;;;;;;;;;0.00;0.00;;;;;;;;5084261;27;63104;-78
2023/03/10 10:39:03;;;;;;;;;1.00;1.00;;;;;;;;5084829;28;62073;-78
2023/03/10 10:41:33;;;;;;;;;0.00;0.00;;;;;;;;5085197;27;62358;-81
2023/03/10 10:44:13;;;;;;;;;5.25;1.00;;;;;;;;5066788;28;61778;-79
2023/03/10 10:46:49;;;;;;;;;0.00;0.00;;;;;;;;5084486;27;62926;-79
2023/03/10 10:49:17;;;;;;;;;2.75;0.00;;;;;;;;5066375;27;62076;-79
2023/03/10 10:51:42;;;;;;;;;4.25;1.00;;;;;;;;5068702;28;62134;-81
2023/03/10 10:54:27;;;;;;;;;1.00;0.00;;;;;;;;5074172;28;62861;-81
2023/03/10 10:57:07;;;;;;;;;0.00;0.00;;;;;;;;5073559;27;63616;-80
2023/03/10 10:59:33;;;;;;;;;1.25;0.00;;;;;;;;5073808;27;61889;-81
2023/03/10 11:02:00;;;;;;;;;5.25;0.25;;;;;;;;5083963;27;61716;-82
2023/03/10 11:04:27;;;;;;;;;2.50;1.00;;;;;;;;5080082;27;61846;-83
2023/03/10 11:07:06;;;;;;;;;9.25;1.25;;;;;;;;5071528;28;64120;-82
2023/03/10 11:09:31;;;;;;;;;0.00;0.00;;;;;;;;5084457;28;61833;-83
2023/03/10 11:12:10;;;;;;;;;1.75;0.00;;;;;;;;5066361;28;62038;-83
2023/03/10 11:14:54;;;;;;;;;0.00;0.00;;;;;;;;5074905;28;62075;-80
2023/03/10 11:17:22;;;;;;;;;3.25;1.25;;;;;;;;5079735;27;61935;-82
2023/03/10 11:20:22;;;;;;;;;0.50;0.50;;;;;;;;5074183;28;61936;-82
2023/03/10 11:22:53;;;;;;;;;0.00;0.00;;;;;;;;4979080;28;62153;-81
2023/03/10 11:25:37;;;;;;;;;1.25;0.75;;;;;;;;4981508;28;61978;-81
2023/03/10 11:28:05;;;;;;;;;3.50;1.00;;;;;;;;4964636;28;64954;-80
2023/03/10 11:30:32;;;;;;;;;0.75;0.00;;;;;;;;4981188;28;62000;-80
2023/03/10 11:33:03;;;;;;;;;0.25;0.00;;;;;;;;4964906;28;61851;-80
2023/03/10 11:35:28;;;;;;;;;1.25;0.25;;;;;;;;4981133;28;61944;-80
2023/03/10 11:38:19;;;;;;;;;2.75;1.00;;;;;;;;4964652;28;63618;-80
2023/03/10 11:40:47;;;;;;;;;3.00;1.50;;;;;;;;4990850;28;61814;-80
2023/03/10 11:43:12;;;;;;;;;1.00;1.00;;;;;;;;4987799;28;62043;-79
2023/03/10 11:45:43;;;;;;;;;0.00;0.00;;;;;;;;4966929;28;62048;-78
2023/03/10 11:48:09;;;;;;;;;2.00;1.00;;;;;;;;4962501;28;63922;-82
2023/03/10 11:50:48;;;;;;;;;4.75;1.00;;;;;;;;4964893;28;62050;-82
2023/03/10 11:53:20;;;;;;;;;1.00;1.00;;;;;;;;4964597;28;62161;-82
2023/03/10 11:55:47;;;;;;;;;2.00;0.00;;;;;;;;4964244;28;61938;-82
2023/03/10 11:58:22;;;;;;;;;4.00;1.00;;;;;;;;5002917;28;64684;-82
2023/03/10 12:00:51;;;;;;;;;3.00;1.00;;;;;;;;5061513;28;61917;-82
2023/03/10 12:03:28;;;;;;;;;1.75;0.25;;;;;;;;5056068;27;61911;-82
2023/03/10 12:05:56;;;;;;;;;1.00;1.00;;;;;;;;5074331;27;61848;-82
2023/03/10 12:08:22;;;;;;;;;3.75;1.00;;;;;;;;5081961;27;62212;-82
2023/03/10 12:10:48;;;;;;;;;1.00;1.00;;;;;;;;5056141;28;62178;-81
2023/03/10 12:13:22;;;;;;;;;0.00;0.00;;;;;;;;5082034;27;61853;-81
2023/03/10 12:15:49;;;;;;;;;2.75;2.00;;;;;;;;5064245;28;62106;-81
2023/03/10 12:18:14;;;;;;;;;1.50;0.75;;;;;;;;5058322;28;63866;-83
2023/03/10 12:20:41;;;;;;;;;1.50;0.00;;;;;;;;5054343;28;62049;-82
2023/03/10 12:23:10;;;;;;;;;2.25;0.25;;;;;;;;5063069;28;62048;-80
2023/03/10 12:25:37;;;;;;;;;2.00;0.00;;;;;;;;5070281;28;61889;-81
2023/03/10 12:28:08;;;;;;;;;1.00;1.00;;;;;;;;5082650;27;61985;-80
2023/03/10 12:30:47;;;;;;;;;1.00;0.00;;;;;;;;5064917;28;61942;-82
2023/03/10 12:36:18;;;;;;;;;1.75;0.00;;;;;;;;5081822;28;61804;-81
2023/03/10 12:38:46;;;;;;;;;0.00;0.00;;;;;;;;5062320;28;63742;-83
2023/03/10 12:41:13;;;;;;;;;0.00;0.00;;;;;;;;5078076;27;62053;-82
2023/03/10 12:43:41;;;;;;;;;1.00;0.00;;;;;;;;5080601;28;61881;-83
2023/03/10 12:46:09;;;;;;;;;1.00;0.00;;;;;;;;5080279;27;61818;-84
2023/03/10 12:48:37;;;;;;;;;0.00;0.00;;;;;;;;5081353;27;64044;-80
2023/03/10 12:51:09;;;;;;;;;0.00;0.00;;;;;;;;5082416;27;62030;-80
2023/03/10 12:53:53;;;;;;;;;0.00;0.00;;;;;;;;5082705;27;61868;-79
2023/03/10 12:56:51;;;;;;;;;0.00;0.00;;;;;;;;5068958;27;61886;-79
2023/03/10 12:59:28;;;;;;;;;0.00;0.00;;;;;;;;5019535;28;63669;-79
2023/03/10 13:01:56;;;;;;;;;0.00;0.00;;;;;;;;5064332;28;62078;-79
2023/03/10 13:04:22;;;;;;;;;0.00;0.00;;;;;;;;5063641;28;61990;-80
2023/03/10 13:06:48;;;;;;;;;0.00;0.00;;;;;;;;5083294;28;61701;-80
2023/03/10 13:09:52;;;;;;;;;2.25;0.00;;;;;;;;5063997;28;63601;-83
2023/03/10 13:12:27;;;;;;;;;0.00;0.00;;;;;;;;5061724;28;61865;-79
2023/03/10 13:14:58;;;;;;;;;1.00;1.00;;;;;;;;5058342;28;61961;-78
2023/03/10 13:17:28;;;;;;;;;1.00;1.00;;;;;;;;5063723;28;61723;-78
2023/03/10 13:20:12;;;;;;;;;0.00;0.00;;;;;;;;5062766;28;63913;-80
2023/03/10 13:22:38;;;;;;;;;0.00;0.00;;;;;;;;5057025;28;61848;-79
2023/03/10 13:25:14;;;;;;;;;0.00;0.00;;;;;;;;5063812;28;61948;-79
2023/03/10 13:27:39;;;;;;;;;0.00;0.00;;;;;;;;5082157;28;62024;-80
2023/03/10 13:30:27;;;;;;;;;0.00;0.00;;;;;;;;5063069;28;63716;-82
2023/03/10 13:32:58;;;;;;;;;0.00;0.00;;;;;;;;5063945;28;61999;-81
2023/03/10 13:35:34;;;;;;;;;0.25;0.00;;;;;;;;5063383;28;61960;-81
2023/03/10 13:38:03;;;;;;;;;0.25;0.00;;;;;;;;5082252;28;61811;-83
2023/03/10 13:40:28;;;;;;;;;0.00;0.00;;;;;;;;5056954;28;64087;-79
2023/03/10 13:42:53;;;;;;;;;2.00;0.00;;;;;;;;5063291;28;61891;-78
2023/03/10 13:45:23;;;;;;;;;0.00;0.00;;;;;;;;5062291;28;61916;-78
2023/03/10 13:47:50;;;;;;;;;1.00;1.00;;;;;;;;5080540;28;61956;-78
2023/03/10 13:50:15;;;;;;;;;0.00;0.00;;;;;;;;5061227;28;65168;-79
2023/03/10 13:53:03;;;;;;;;;0.00;0.00;;;;;;;;5061971;28;61821;-78
2023/03/10 13:55:37;;;;;;;;;0.00;0.00;;;;;;;;5059025;28;62194;-77
2023/03/10 13:58:03;;;;;;;;;0.25;0.25;;;;;;;;5062855;28;62108;-79
2023/03/10 14:00:28;;;;;;;;;1.50;0.00;;;;;;;;5080176;28;62936;-78
2023/03/10 14:02:54;;;;;;;;;0.00;0.00;;;;;;;;5081611;27;61645;-78
2023/03/10 14:05:38;;;;;;;;;0.00;0.00;;;;;;;;5066055;28;62135;-78
2023/03/10 14:08:04;;;;;;;;;1.50;0.25;;;;;;;;5064354;27;61858;-79
2023/03/10 14:10:31;;;;;;;;;0.00;0.00;;;;;;;;5066298;28;63876;-79
2023/03/10 14:12:56;;;;;;;;;0.00;0.00;;;;;;;;5044239;28;61865;-79
2023/03/10 14:15:26;;;;;;;;;0.00;0.00;;;;;;;;5084239;27;61919;-79
2023/03/10 14:18:12;;;;;;;;;2.25;0.00;;;;;;;;5066340;28;61951;-79
2023/03/10 14:20:38;;;;;;;;;0.00;0.00;;;;;;;;5062129;28;63458;-79
2023/03/10 14:23:21;;;;;;;;;0.00;0.00;;;;;;;;5068647;27;62203;-79
2023/03/10 14:25:47;;;;;;;;;0.00;0.00;;;;;;;;5068561;28;62049;-79
2023/03/10 14:28:15;;;;;;;;;0.00;0.00;;;;;;;;5083305;27;62120;-79
2023/03/10 14:30:42;;;;;;;;;1.00;0.00;;;;;;;;5071902;27;64919;-78
2023/03/10 14:33:11;;;;;;;;;0.00;0.00;;;;;;;;5082874;27;62028;-79
2023/03/10 14:35:38;;;;;;;;;1.00;0.00;;;;;;;;5082969;27;62122;-79
2023/03/10 14:38:04;;;;;;;;;0.00;0.00;;;;;;;;5083442;27;61810;-79
2023/03/10 14:40:29;;;;;;;;;0.50;0.00;;;;;;;;5053817;28;63244;-79
2023/03/10 14:42:57;;;;;;;;;0.00;0.00;;;;;;;;5073094;28;61918;-78
2023/03/10 14:45:30;;;;;;;;;0.25;0.25;;;;;;;;5070518;28;61860;-79
2023/03/10 14:47:57;;;;;;;;;0.25;0.25;;;;;;;;5064859;28;62218;-79
2023/03/10 14:50:23;;;;;;;;;0.50;0.50;;;;;;;;5063860;28;65086;-79